sensor_id;sensor_type;location;lat;lon;timestamp;P1;durP1;ratioP1;P2;durP2;ratioP2
9940;SDS011;5009;50.656;7.188;2023-05-10T03:36:47;2.07;;;0.90;;
9940;SDS011;5009;50.656;7.188;2023-05-10T03:39:13;1.37;;;1.10;;
9940;SDS011;5009;50.656;7.188;2023-05-10T03:41:38;1.30;;;1.20;;
9940;SDS011;5009;50.656;7.188;2023-05-10T03:44:04;1.53;;;1.20;;
9940;SDS011;5009;50.656;7.188;2023-05-10T03:46:29;1.70;;;1.60;;
9940;SDS011;5009;50.656;7.188;2023-05-10T03:48:56;1.73;;;1.63;;
9940;SDS011;5009;50.656;7.188;2023-05-10T03:51:21;1.40;;;1.27;;
9940;SDS011;5009;50.656;7.188;2023-05-10T03:53:47;1.73;;;1.40;;
9940;SDS011;5009;50.656;7.188;2023-05-10T03:56:13;1.73;;;1.63;;
9940;SDS011;5009;50.656;7.188;2023-05-10T03:58:38;2.13;;;1.73;;
9940;SDS011;5009;50.656;7.188;2023-05-10T04:01:04;2.27;;;1.60;;
9940;SDS011;5009;50.656;7.188;2023-05-10T04:03:29;3.40;;;1.57;;
9940;SDS011;5009;50.656;7.188;2023-05-10T04:06:01;1.83;;;1.67;;
9940;SDS011;5009;50.656;7.188;2023-05-10T04:08:27;1.70;;;1.50;;
9940;SDS011;5009;50.656;7.188;2023-05-10T04:10:53;2.07;;;1.83;;
9940;SDS011;5009;50.656;7.188;2023-05-10T04:13:19;1.83;;;1.73;;
9940;SDS011;5009;50.656;7.188;2023-05-10T04:15:44;2.40;;;2.20;;
9940;SDS011;5009;50.656;7.188;2023-05-10T04:18:10;2.20;;;2.10;;
9940;SDS011;5009;50.656;7.188;2023-05-10T04:20:36;2.10;;;2.00;;
9940;SDS011;5009;50.656;7.188;2023-05-10T04:23:02;3.17;;;2.50;;
9940;SDS011;5009;50.656;7.188;2023-05-10T04:25:27;3.10;;;2.30;;
9940;SDS011;5009;50.656;7.188;2023-05-10T04:27:53;2.63;;;2.43;;
9940;SDS011;5009;50.656;7.188;2023-05-10T04:30:19;2.70;;;2.30;;
9940;SDS011;5009;50.656;7.188;2023-05-10T04:32:44;2.93;;;2.70;;
9940;SDS011;5009;50.656;7.188;2023-05-10T04:35:10;4.07;;;2.83;;
9940;SDS011;5009;50.656;7.188;2023-05-10T04:37:35;3.10;;;2.90;;
9940;SDS011;5009;50.656;7.188;2023-05-10T04:40:01;3.13;;;2.93;;
9940;SDS011;5009;50.656;7.188;2023-05-10T04:42:28;3.23;;;3.03;;
9940;SDS011;5009;50.656;7.188;2023-05-10T04:44:53;4.20;;;3.37;;
9940;SDS011;5009;50.656;7.188;2023-05-10T04:47:19;3.20;;;2.90;;
9940;SDS011;5009;50.656;7.188;2023-05-10T04:49:45;2.93;;;2.83;;
9940;SDS011;5009;50.656;7.188;2023-05-10T04:52:10;3.63;;;2.80;;
9940;SDS011;5009;50.656;7.188;2023-05-10T04:54:36;3.57;;;3.27;;
9940;SDS011;5009;50.656;7.188;2023-05-10T04:57:02;3.60;;;3.30;;
9940;SDS011;5009;50.656;7.188;2023-05-10T04:59:27;3.73;;;3.47;;
9940;SDS011;5009;50.656;7.188;2023-05-10T05:01:53;3.30;;;3.00;;
9940;SDS011;5009;50.656;7.188;2023-05-10T05:04:18;3.40;;;3.10;;
9940;SDS011;5009;50.656;7.188;2023-05-10T05:06:44;5.10;;;3.50;;
9940;SDS011;5009;50.656;7.188;2023-05-10T05:09:09;3.90;;;3.50;;
9940;SDS011;5009;50.656;7.188;2023-05-10T05:11:35;3.67;;;3.27;;
9940;SDS011;5009;50.656;7.188;2023-05-10T05:14:01;4.10;;;3.67;;
9940;SDS011;5009;50.656;7.188;2023-05-10T05:16:26;4.93;;;4.03;;
9940;SDS011;5009;50.656;7.188;2023-05-10T05:18:52;4.00;;;3.70;;
9940;SDS011;5009;50.656;7.188;2023-05-10T05:21:18;4.03;;;3.73;;
9940;SDS011;5009;50.656;7.188;2023-05-10T05:23:45;5.37;;;4.00;;
9940;SDS011;5009;50.656;7.188;2023-05-10T05:26:10;5.43;;;4.40;;
9940;SDS011;5009;50.656;7.188;2023-05-10T05:28:36;4.50;;;4.10;;
9940;SDS011;5009;50.656;7.188;2023-05-10T05:31:03;4.30;;;3.90;;
9940;SDS011;5009;50.656;7.188;2023-05-10T05:33:30;6.27;;;4.27;;
9940;SDS011;5009;50.656;7.188;2023-05-10T05:35:56;5.77;;;4.57;;
9940;SDS011;5009;50.656;7.188;2023-05-10T05:38:21;4.87;;;4.27;;
9940;SDS011;5009;50.656;7.188;2023-05-10T05:40:47;4.50;;;4.10;;
9940;SDS011;5009;50.656;7.188;2023-05-10T05:43:13;6.70;;;4.60;;
9940;SDS011;5009;50.656;7.188;2023-05-10T05:45:38;5.73;;;4.50;;
9940;SDS011;5009;50.656;7.188;2023-05-10T05:48:04;4.87;;;4.27;;
9940;SDS011;5009;50.656;7.188;2023-05-10T05:50:30;4.37;;;4.07;;
9940;SDS011;5009;50.656;7.188;2023-05-10T05:52:55;4.37;;;4.00;;
9940;SDS011;5009;50.656;7.188;2023-05-10T05:55:22;4.47;;;4.07;;
9940;SDS011;5009;50.656;7.188;2023-05-10T05:57:48;4.70;;;4.20;;
9940;SDS011;5009;50.656;7.188;2023-05-10T06:00:14;4.57;;;4.23;;
9940;SDS011;5009;50.656;7.188;2023-05-10T06:02:41;6.27;;;4.60;;
9940;SDS011;5009;50.656;7.188;2023-05-10T06:05:06;4.43;;;4.10;;
9940;SDS011;5009;50.656;7.188;2023-05-10T06:07:32;4.33;;;3.60;;
9940;SDS011;5009;50.656;7.188;2023-05-10T06:09:58;4.83;;;4.10;;
9940;SDS011;5009;50.656;7.188;2023-05-10T06:12:23;4.63;;;4.03;;
9940;SDS011;5009;50.656;7.188;2023-05-10T06:14:49;5.77;;;4.20;;
9940;SDS011;5009;50.656;7.188;2023-05-10T06:17:14;4.97;;;3.97;;
9940;SDS011;5009;50.656;7.188;2023-05-10T06:19:40;4.63;;;4.03;;
9940;SDS011;5009;50.656;7.188;2023-05-10T06:22:05;4.53;;;4.13;;
9940;SDS011;5009;50.656;7.188;2023-05-10T06:24:31;5.97;;;3.70;;
9940;SDS011;5009;50.656;7.188;2023-05-10T06:26:56;4.90;;;3.90;;
9940;SDS011;5009;50.656;7.188;2023-05-10T06:29:24;4.73;;;4.10;;
9940;SDS011;5009;50.656;7.188;2023-05-10T06:31:50;4.10;;;3.80;;
9940;SDS011;5009;50.656;7.188;2023-05-10T06:34:16;4.17;;;3.83;;
9940;SDS011;5009;50.656;7.188;2023-05-10T06:36:41;3.83;;;3.53;;
9940;SDS011;5009;50.656;7.188;2023-05-10T06:39:07;3.70;;;3.40;;
9940;SDS011;5009;50.656;7.188;2023-05-10T06:41:32;4.17;;;3.77;;
9940;SDS011;5009;50.656;7.188;2023-05-10T06:43:58;3.30;;;3.10;;
9940;SDS011;5009;50.656;7.188;2023-05-10T06:46:24;4.83;;;4.10;;
9940;SDS011;5009;50.656;7.188;2023-05-10T06:48:49;4.07;;;3.63;;
9940;SDS011;5009;50.656;7.188;2023-05-10T06:51:15;4.47;;;4.07;;
9940;SDS011;5009;50.656;7.188;2023-05-10T06:53:40;4.27;;;3.90;;
9940;SDS011;5009;50.656;7.188;2023-05-10T06:56:06;4.40;;;4.00;;
9940;SDS011;5009;50.656;7.188;2023-05-10T06:58:32;4.20;;;3.80;;
9940;SDS011;5009;50.656;7.188;2023-05-10T07:01:04;4.50;;;4.10;;
9940;SDS011;5009;50.656;7.188;2023-05-10T07:03:30;5.70;;;4.20;;
9940;SDS011;5009;50.656;7.188;2023-05-10T07:06:02;7.68;;;4.38;;
9940;SDS011;5009;50.656;7.188;2023-05-10T07:08:31;4.90;;;4.47;;
9940;SDS011;5009;50.656;7.188;2023-05-10T07:11:01;5.40;;;4.90;;
9940;SDS011;5009;50.656;7.188;2023-05-10T07:13:28;5.23;;;4.60;;
9940;SDS011;5009;50.656;7.188;2023-05-10T07:15:56;5.07;;;4.57;;
9940;SDS011;5009;50.656;7.188;2023-05-10T07:18:23;4.90;;;4.50;;
9940;SDS011;5009;50.656;7.188;2023-05-10T07:20:49;5.10;;;4.70;;
9940;SDS011;5009;50.656;7.188;2023-05-10T07:23:14;4.88;;;4.43;;
9940;SDS011;5009;50.656;7.188;2023-05-10T07:25:40;5.20;;;4.78;;
9940;SDS011;5009;50.656;7.188;2023-05-10T07:28:05;5.57;;;5.10;;
9940;SDS011;5009;50.656;7.188;2023-05-10T07:30:31;6.53;;;5.10;;
9940;SDS011;5009;50.656;7.188;2023-05-10T07:32:56;5.72;;;5.00;;
9940;SDS011;5009;50.656;7.188;2023-05-10T07:35:22;5.30;;;4.78;;
9940;SDS011;5009;50.656;7.188;2023-05-10T07:37:47;4.47;;;4.03;;
9940;SDS011;5009;50.656;7.188;2023-05-10T07:40:13;5.43;;;4.93;;
9940;SDS011;5009;50.656;7.188;2023-05-10T07:42:38;5.22;;;4.72;;
9940;SDS011;5009;50.656;7.188;2023-05-10T07:45:04;5.95;;;5.40;;
9940;SDS011;5009;50.656;7.188;2023-05-10T07:47:30;5.45;;;4.97;;
9940;SDS011;5009;50.656;7.188;2023-05-10T07:49:56;5.40;;;4.90;;
9940;SDS011;5009;50.656;7.188;2023-05-10T07:52:21;5.27;;;4.73;;
9940;SDS011;5009;50.656;7.188;2023-05-10T07:54:47;5.87;;;4.23;;
9940;SDS011;5009;50.656;7.188;2023-05-10T07:57:12;4.90;;;4.43;;
9940;SDS011;5009;50.656;7.188;2023-05-10T07:59:40;6.63;;;4.68;;
9940;SDS011;5009;50.656;7.188;2023-05-10T08:02:06;6.00;;;5.00;;
9940;SDS011;5009;50.656;7.188;2023-05-10T08:04:31;5.40;;;4.60;;
9940;SDS011;5009;50.656;7.188;2023-05-10T08:06:57;5.38;;;4.32;;
9940;SDS011;5009;50.656;7.188;2023-05-10T08:09:22;5.10;;;4.70;;
9940;SDS011;5009;50.656;7.188;2023-05-10T08:11:49;5.35;;;4.53;;
9940;SDS011;5009;50.656;7.188;2023-05-10T08:14:15;3.88;;;3.55;;
9940;SDS011;5009;50.656;7.188;2023-05-10T08:16:41;3.85;;;3.35;;
9940;SDS011;5009;50.656;7.188;2023-05-10T08:19:07;4.03;;;3.35;;
9940;SDS011;5009;50.656;7.188;2023-05-10T08:21:33;3.53;;;3.22;;
9940;SDS011;5009;50.656;7.188;2023-05-10T08:23:58;3.00;;;2.80;;
9940;SDS011;5009;50.656;7.188;2023-05-10T08:26:24;2.95;;;2.75;;
9940;SDS011;5009;50.656;7.188;2023-05-10T08:28:49;4.47;;;3.15;;
9940;SDS011;5009;50.656;7.188;2023-05-10T08:31:15;2.80;;;2.55;;
9940;SDS011;5009;50.656;7.188;2023-05-10T08:33:41;6.60;;;3.00;;
9940;SDS011;5009;50.656;7.188;2023-05-10T08:36:06;3.95;;;2.95;;
9940;SDS011;5009;50.656;7.188;2023-05-10T08:38:32;3.90;;;3.50;;
9940;SDS011;5009;50.656;7.188;2023-05-10T08:40:57;3.40;;;2.80;;
9940;SDS011;5009;50.656;7.188;2023-05-10T08:43:27;2.83;;;2.63;;
9940;SDS011;5009;50.656;7.188;2023-05-10T08:45:56;4.38;;;3.70;;
9940;SDS011;5009;50.656;7.188;2023-05-10T08:48:25;7.80;;;3.47;;
9940;SDS011;5009;50.656;7.188;2023-05-10T08:50:53;5.53;;;3.83;;
9940;SDS011;5009;50.656;7.188;2023-05-10T08:53:20;5.07;;;4.28;;
9940;SDS011;5009;50.656;7.188;2023-05-10T08:55:49;8.20;;;4.93;;
9940;SDS011;5009;50.656;7.188;2023-05-10T08:58:14;5.72;;;4.55;;
9940;SDS011;5009;50.656;7.188;2023-05-10T09:00:40;5.38;;;4.88;;
9940;SDS011;5009;50.656;7.188;2023-05-10T09:03:06;8.48;;;5.20;;
9940;SDS011;5009;50.656;7.188;2023-05-10T09:05:32;6.35;;;4.20;;
9940;SDS011;5009;50.656;7.188;2023-05-10T09:07:57;3.97;;;2.92;;
9940;SDS011;5009;50.656;7.188;2023-05-10T09:10:25;3.13;;;2.40;;
9940;SDS011;5009;50.656;7.188;2023-05-10T09:12:53;6.70;;;2.22;;
9940;SDS011;5009;50.656;7.188;2023-05-10T09:15:20;4.57;;;1.75;;
9940;SDS011;5009;50.656;7.188;2023-05-10T09:17:46;6.07;;;1.58;;
9940;SDS011;5009;50.656;7.188;2023-05-10T09:20:14;2.58;;;1.10;;
9940;SDS011;5009;50.656;7.188;2023-05-10T09:22:39;1.52;;;1.23;;
9940;SDS011;5009;50.656;7.188;2023-05-10T09:27:36;1.30;;;1.20;;
9940;SDS011;5009;50.656;7.188;2023-05-10T09:30:03;1.27;;;1.17;;
9940;SDS011;5009;50.656;7.188;2023-05-10T09:32:42;1.30;;;1.10;;
9940;SDS011;5009;50.656;7.188;2023-05-10T09:35:10;1.20;;;1.10;;
9940;SDS011;5009;50.656;7.188;2023-05-10T09:37:36;0.98;;;0.98;;
9940;SDS011;5009;50.656;7.188;2023-05-10T09:40:05;2.80;;;1.23;;
9940;SDS011;5009;50.656;7.188;2023-05-10T09:42:32;2.97;;;1.05;;
9940;SDS011;5009;50.656;7.188;2023-05-10T09:45:02;1.40;;;1.30;;
9940;SDS011;5009;50.656;7.188;2023-05-10T09:47:32;3.10;;;1.20;;
9940;SDS011;5009;50.656;7.188;2023-05-10T09:49:58;1.98;;;1.35;;
9940;SDS011;5009;50.656;7.188;2023-05-10T09:52:28;1.05;;;0.98;;
9940;SDS011;5009;50.656;7.188;2023-05-10T09:55:15;1.70;;;1.25;;
9940;SDS011;5009;50.656;7.188;2023-05-10T09:57:41;1.05;;;1.05;;
9940;SDS011;5009;50.656;7.188;2023-05-10T10:00:07;0.90;;;0.90;;
9940;SDS011;5009;50.656;7.188;2023-05-10T10:02:35;1.05;;;0.98;;
9940;SDS011;5009;50.656;7.188;2023-05-10T10:05:01;1.00;;;1.00;;
9940;SDS011;5009;50.656;7.188;2023-05-10T10:07:30;1.00;;;1.00;;
9940;SDS011;5009;50.656;7.188;2023-05-10T10:09:57;2.47;;;1.05;;
9940;SDS011;5009;50.656;7.188;2023-05-10T10:12:24;1.38;;;1.20;;
9940;SDS011;5009;50.656;7.188;2023-05-10T10:14:50;1.02;;;1.02;;
9940;SDS011;5009;50.656;7.188;2023-05-10T10:17:16;1.40;;;1.15;;
9940;SDS011;5009;50.656;7.188;2023-05-10T10:19:42;1.27;;;1.20;;
9940;SDS011;5009;50.656;7.188;2023-05-10T10:22:08;1.00;;;1.00;;
9940;SDS011;5009;50.656;7.188;2023-05-10T10:24:36;3.03;;;1.30;;
9940;SDS011;5009;50.656;7.188;2023-05-10T10:27:15;1.58;;;1.10;;
9940;SDS011;5009;50.656;7.188;2023-05-10T10:29:55;1.23;;;1.15;;
9940;SDS011;5009;50.656;7.188;2023-05-10T10:35:40;1.05;;;0.88;;
9940;SDS011;5009;50.656;7.188;2023-05-10T10:38:07;1.10;;;1.00;;
9940;SDS011;5009;50.656;7.188;2023-05-10T10:40:33;1.95;;;1.38;;
9940;SDS011;5009;50.656;7.188;2023-05-10T10:48:39;1.35;;;1.20;;
9940;SDS011;5009;50.656;7.188;2023-05-10T10:51:06;1.92;;;1.30;;
9940;SDS011;5009;50.656;7.188;2023-05-10T10:53:32;1.63;;;1.15;;
9940;SDS011;5009;50.656;7.188;2023-05-10T10:56:08;1.25;;;1.17;;
9940;SDS011;5009;50.656;7.188;2023-05-10T10:58:36;1.40;;;1.30;;
9940;SDS011;5009;50.656;7.188;2023-05-10T11:01:16;2.35;;;1.42;;
9940;SDS011;5009;50.656;7.188;2023-05-10T11:06:42;1.48;;;1.38;;
9940;SDS011;5009;50.656;7.188;2023-05-10T11:09:08;1.17;;;1.13;;
9940;SDS011;5009;50.656;7.188;2023-05-10T11:11:35;1.02;;;1.02;;
9940;SDS011;5009;50.656;7.188;2023-05-10T11:14:04;1.17;;;1.17;;
9940;SDS011;5009;50.656;7.188;2023-05-10T11:16:41;0.75;;;0.75;;
9940;SDS011;5009;50.656;7.188;2023-05-10T11:19:11;1.85;;;1.13;;
9940;SDS011;5009;50.656;7.188;2023-05-10T11:21:48;2.45;;;1.05;;
9940;SDS011;5009;50.656;7.188;2023-05-10T11:24:38;4.38;;;1.30;;
9940;SDS011;5009;50.656;7.188;2023-05-10T11:27:03;1.42;;;0.98;;
9940;SDS011;5009;50.656;7.188;2023-05-10T11:29:30;1.20;;;1.10;;
9940;SDS011;5009;50.656;7.188;2023-05-10T11:31:58;1.00;;;1.00;;
9940;SDS011;5009;50.656;7.188;2023-05-10T11:34:25;0.90;;;0.90;;
9940;SDS011;5009;50.656;7.188;2023-05-10T11:36:52;1.00;;;0.93;;
9940;SDS011;5009;50.656;7.188;2023-05-10T11:39:19;1.35;;;1.10;;
9940;SDS011;5009;50.656;7.188;2023-05-10T11:41:49;1.65;;;1.20;;
9940;SDS011;5009;50.656;7.188;2023-05-10T11:44:15;1.40;;;1.30;;
9940;SDS011;5009;50.656;7.188;2023-05-10T11:46:41;1.42;;;1.15;;
9940;SDS011;5009;50.656;7.188;2023-05-10T11:49:07;1.17;;;1.17;;
9940;SDS011;5009;50.656;7.188;2023-05-10T11:51:33;1.00;;;1.00;;
9940;SDS011;5009;50.656;7.188;2023-05-10T11:54:07;1.08;;;0.90;;
9940;SDS011;5009;50.656;7.188;2023-05-10T11:56:34;1.30;;;1.20;;
9940;SDS011;5009;50.656;7.188;2023-05-10T11:58:59;2.28;;;1.27;;
9940;SDS011;5009;50.656;7.188;2023-05-10T12:01:27;2.33;;;1.52;;
9940;SDS011;5009;50.656;7.188;2023-05-10T12:03:54;1.20;;;1.10;;
9940;SDS011;5009;50.656;7.188;2023-05-10T12:06:26;4.28;;;1.63;;
9940;SDS011;5009;50.656;7.188;2023-05-10T12:08:53;1.67;;;1.58;;
9940;SDS011;5009;50.656;7.188;2023-05-10T12:11:19;1.45;;;1.35;;
9940;SDS011;5009;50.656;7.188;2023-05-10T12:13:49;1.10;;;1.10;;
9940;SDS011;5009;50.656;7.188;2023-05-10T12:16:15;1.17;;;0.93;;
9940;SDS011;5009;50.656;7.188;2023-05-10T12:18:42;0.95;;;0.95;;
9940;SDS011;5009;50.656;7.188;2023-05-10T12:21:12;0.65;;;0.65;;
9940;SDS011;5009;50.656;7.188;2023-05-10T12:23:38;1.35;;;0.68;;
9940;SDS011;5009;50.656;7.188;2023-05-10T12:26:04;0.73;;;0.73;;
9940;SDS011;5009;50.656;7.188;2023-05-10T12:28:31;0.90;;;0.90;;
9940;SDS011;5009;50.656;7.188;2023-05-10T12:30:57;1.15;;;1.05;;
9940;SDS011;5009;50.656;7.188;2023-05-10T12:33:27;1.08;;;0.75;;
9940;SDS011;5009;50.656;7.188;2023-05-10T12:35:59;1.15;;;1.10;;
9940;SDS011;5009;50.656;7.188;2023-05-10T12:40:57;1.85;;;1.10;;
9940;SDS011;5009;50.656;7.188;2023-05-10T12:43:30;1.35;;;1.00;;
9940;SDS011;5009;50.656;7.188;2023-05-10T12:45:55;0.80;;;0.80;;
9940;SDS011;5009;50.656;7.188;2023-05-10T12:48:21;2.20;;;1.02;;
9940;SDS011;5009;50.656;7.188;2023-05-10T12:50:47;1.30;;;1.10;;
9940;SDS011;5009;50.656;7.188;2023-05-10T12:53:13;1.30;;;1.20;;
9940;SDS011;5009;50.656;7.188;2023-05-10T12:55:40;1.27;;;1.27;;
9940;SDS011;5009;50.656;7.188;2023-05-10T12:58:06;1.98;;;1.88;;
9940;SDS011;5009;50.656;7.188;2023-05-10T13:00:32;2.20;;;2.10;;
9940;SDS011;5009;50.656;7.188;2023-05-10T13:02:58;2.22;;;2.05;;
9940;SDS011;5009;50.656;7.188;2023-05-10T13:05:23;2.83;;;2.08;;
9940;SDS011;5009;50.656;7.188;2023-05-10T13:07:49;2.30;;;2.20;;
9940;SDS011;5009;50.656;7.188;2023-05-10T13:10:23;2.08;;;1.98;;
9940;SDS011;5009;50.656;7.188;2023-05-10T13:12:49;2.08;;;1.70;;
9940;SDS011;5009;50.656;7.188;2023-05-10T13:15:14;1.90;;;1.80;;
9940;SDS011;5009;50.656;7.188;2023-05-10T13:17:40;1.63;;;1.58;;
9940;SDS011;5009;50.656;7.188;2023-05-10T13:20:07;2.13;;;1.95;;
9940;SDS011;5009;50.656;7.188;2023-05-10T13:22:34;2.10;;;2.00;;
9940;SDS011;5009;50.656;7.188;2023-05-10T13:25:00;2.20;;;2.10;;
9940;SDS011;5009;50.656;7.188;2023-05-10T13:27:27;2.55;;;2.35;;
9940;SDS011;5009;50.656;7.188;2023-05-10T13:29:53;2.55;;;2.45;;
9940;SDS011;5009;50.656;7.188;2023-05-10T13:32:19;2.30;;;2.08;;
9940;SDS011;5009;50.656;7.188;2023-05-10T13:34:47;1.73;;;1.70;;
9940;SDS011;5009;50.656;7.188;2023-05-10T13:37:12;2.05;;;1.95;;
9940;SDS011;5009;50.656;7.188;2023-05-10T13:39:38;2.60;;;1.85;;
9940;SDS011;5009;50.656;7.188;2023-05-10T13:42:03;3.63;;;1.83;;
9940;SDS011;5009;50.656;7.188;2023-05-10T13:44:29;1.90;;;1.80;;
9940;SDS011;5009;50.656;7.188;2023-05-10T13:46:55;3.83;;;2.00;;
9940;SDS011;5009;50.656;7.188;2023-05-10T13:49:22;2.03;;;1.70;;
9940;SDS011;5009;50.656;7.188;2023-05-10T13:51:48;1.75;;;1.65;;
9940;SDS011;5009;50.656;7.188;2023-05-10T13:54:13;1.50;;;1.50;;
9940;SDS011;5009;50.656;7.188;2023-05-10T13:56:39;1.92;;;1.67;;
9940;SDS011;5009;50.656;7.188;2023-05-10T13:59:07;1.85;;;1.75;;
9940;SDS011;5009;50.656;7.188;2023-05-10T14:01:34;1.70;;;1.63;;
9940;SDS011;5009;50.656;7.188;2023-05-10T14:03:59;1.83;;;1.73;;
9940;SDS011;5009;50.656;7.188;2023-05-10T14:06:25;1.90;;;1.80;;
9940;SDS011;5009;50.656;7.188;2023-05-10T14:08:52;2.38;;;2.17;;
9940;SDS011;5009;50.656;7.188;2023-05-10T14:11:18;2.30;;;2.20;;
9940;SDS011;5009;50.656;7.188;2023-05-10T14:13:44;6.63;;;2.20;;
9940;SDS011;5009;50.656;7.188;2023-05-10T14:16:10;3.63;;;3.22;;
9940;SDS011;5009;50.656;7.188;2023-05-10T14:18:36;2.63;;;2.42;;
9940;SDS011;5009;50.656;7.188;2023-05-10T14:21:05;1.73;;;1.63;;
9940;SDS011;5009;50.656;7.188;2023-05-10T14:23:31;1.23;;;1.10;;
9940;SDS011;5009;50.656;7.188;2023-05-10T14:25:57;1.50;;;1.33;;
9940;SDS011;5009;50.656;7.188;2023-05-10T14:28:22;1.45;;;1.35;;
9940;SDS011;5009;50.656;7.188;2023-05-10T14:30:49;1.67;;;1.48;;
9940;SDS011;5009;50.656;7.188;2023-05-10T14:33:16;1.45;;;1.35;;
9940;SDS011;5009;50.656;7.188;2023-05-10T14:35:42;1.90;;;1.80;;
9940;SDS011;5009;50.656;7.188;2023-05-10T14:38:08;1.38;;;1.27;;
9940;SDS011;5009;50.656;7.188;2023-05-10T14:40:35;3.08;;;2.10;;
9940;SDS011;5009;50.656;7.188;2023-05-10T14:43:01;1.75;;;1.50;;
9940;SDS011;5009;50.656;7.188;2023-05-10T14:45:26;2.27;;;0.70;;
9940;SDS011;5009;50.656;7.188;2023-05-10T14:47:52;1.38;;;1.27;;
9940;SDS011;5009;50.656;7.188;2023-05-10T14:50:18;1.15;;;0.90;;
9940;SDS011;5009;50.656;7.188;2023-05-10T14:52:44;0.73;;;0.70;;
9940;SDS011;5009;50.656;7.188;2023-05-10T14:55:09;1.85;;;1.00;;
9940;SDS011;5009;50.656;7.188;2023-05-10T14:57:35;1.35;;;0.90;;
9940;SDS011;5009;50.656;7.188;2023-05-10T15:00:01;1.55;;;1.25;;
9940;SDS011;5009;50.656;7.188;2023-05-10T15:02:28;1.00;;;1.00;;
9940;SDS011;5009;50.656;7.188;2023-05-10T15:04:54;0.88;;;0.88;;
9940;SDS011;5009;50.656;7.188;2023-05-10T15:07:19;1.35;;;1.25;;
9940;SDS011;5009;50.656;7.188;2023-05-10T15:09:45;1.08;;;1.08;;
9940;SDS011;5009;50.656;7.188;2023-05-10T15:12:11;1.38;;;1.27;;
9940;SDS011;5009;50.656;7.188;2023-05-10T15:14:36;2.38;;;1.42;;
9940;SDS011;5009;50.656;7.188;2023-05-10T15:17:02;1.15;;;1.05;;
9940;SDS011;5009;50.656;7.188;2023-05-10T15:19:29;1.65;;;1.45;;
9940;SDS011;5009;50.656;7.188;2023-05-10T15:21:54;1.63;;;1.52;;
9940;SDS011;5009;50.656;7.188;2023-05-10T15:24:21;1.10;;;0.90;;
9940;SDS011;5009;50.656;7.188;2023-05-10T15:26:46;4.60;;;1.10;;
9940;SDS011;5009;50.656;7.188;2023-05-10T15:29:13;1.60;;;0.93;;
9940;SDS011;5009;50.656;7.188;2023-05-10T15:31:45;1.13;;;1.05;;
9940;SDS011;5009;50.656;7.188;2023-05-10T15:34:14;1.02;;;0.90;;
9940;SDS011;5009;50.656;7.188;2023-05-10T15:36:40;1.13;;;1.00;;
9940;SDS011;5009;50.656;7.188;2023-05-10T15:39:06;3.53;;;1.15;;
9940;SDS011;5009;50.656;7.188;2023-05-10T15:41:34;1.75;;;0.93;;
9940;SDS011;5009;50.656;7.188;2023-05-10T15:43:59;0.90;;;0.90;;
9940;SDS011;5009;50.656;7.188;2023-05-10T15:46:25;0.85;;;0.60;;
9940;SDS011;5009;50.656;7.188;2023-05-10T15:48:55;1.38;;;1.00;;
9940;SDS011;5009;50.656;7.188;2023-05-10T15:51:21;1.13;;;1.02;;
9940;SDS011;5009;50.656;7.188;2023-05-10T15:53:47;2.10;;;1.20;;
9940;SDS011;5009;50.656;7.188;2023-05-10T15:56:13;3.88;;;1.10;;
9940;SDS011;5009;50.656;7.188;2023-05-10T15:58:39;0.90;;;0.90;;
9940;SDS011;5009;50.656;7.188;2023-05-10T16:01:05;1.40;;;0.95;;
9940;SDS011;5009;50.656;7.188;2023-05-10T16:03:31;1.10;;;0.95;;
9940;SDS011;5009;50.656;7.188;2023-05-10T16:05:58;1.10;;;1.10;;
9940;SDS011;5009;50.656;7.188;2023-05-10T16:08:23;1.35;;;1.25;;
9940;SDS011;5009;50.656;7.188;2023-05-10T16:10:52;1.35;;;1.13;;
9940;SDS011;5009;50.656;7.188;2023-05-10T16:13:17;1.42;;;1.33;;
9940;SDS011;5009;50.656;7.188;2023-05-10T16:15:43;1.58;;;1.20;;
9940;SDS011;5009;50.656;7.188;2023-05-10T16:18:09;2.40;;;1.25;;
9940;SDS011;5009;50.656;7.188;2023-05-10T16:20:35;1.08;;;1.00;;
9940;SDS011;5009;50.656;7.188;2023-05-10T16:23:05;1.52;;;1.42;;
9940;SDS011;5009;50.656;7.188;2023-05-10T16:25:31;1.30;;;1.25;;
9940;SDS011;5009;50.656;7.188;2023-05-10T16:27:58;2.35;;;1.67;;
9940;SDS011;5009;50.656;7.188;2023-05-10T16:30:24;1.65;;;1.55;;
9940;SDS011;5009;50.656;7.188;2023-05-10T16:32:51;1.80;;;1.70;;
9940;SDS011;5009;50.656;7.188;2023-05-10T16:35:17;1.70;;;1.60;;
9940;SDS011;5009;50.656;7.188;2023-05-10T16:37:43;1.42;;;1.33;;
9940;SDS011;5009;50.656;7.188;2023-05-10T16:40:09;2.80;;;1.60;;
9940;SDS011;5009;50.656;7.188;2023-05-10T16:42:35;1.95;;;1.83;;
9940;SDS011;5009;50.656;7.188;2023-05-10T16:45:01;2.20;;;2.10;;
9940;SDS011;5009;50.656;7.188;2023-05-10T16:47:32;1.85;;;1.75;;
9940;SDS011;5009;50.656;7.188;2023-05-10T16:49:59;2.20;;;2.00;;
9940;SDS011;5009;50.656;7.188;2023-05-10T16:52:25;1.98;;;1.50;;
9940;SDS011;5009;50.656;7.188;2023-05-10T16:54:53;1.90;;;1.50;;
9940;SDS011;5009;50.656;7.188;2023-05-10T16:57:19;1.52;;;1.40;;
9940;SDS011;5009;50.656;7.188;2023-05-10T16:59:44;1.60;;;1.50;;
9940;SDS011;5009;50.656;7.188;2023-05-10T17:02:10;1.30;;;1.30;;
9940;SDS011;5009;50.656;7.188;2023-05-10T17:04:36;1.77;;;1.67;;
9940;SDS011;5009;50.656;7.188;2023-05-10T17:07:02;1.80;;;1.70;;
9940;SDS011;5009;50.656;7.188;2023-05-10T17:09:27;2.20;;;2.00;;
9940;SDS011;5009;50.656;7.188;2023-05-10T17:11:53;2.10;;;2.00;;
9940;SDS011;5009;50.656;7.188;2023-05-10T17:14:18;1.77;;;1.67;;
9940;SDS011;5009;50.656;7.188;2023-05-10T17:16:44;1.88;;;1.75;;
9940;SDS011;5009;50.656;7.188;2023-05-10T17:19:11;2.10;;;1.90;;
9940;SDS011;5009;50.656;7.188;2023-05-10T17:21:37;3.03;;;2.05;;
9940;SDS011;5009;50.656;7.188;2023-05-10T17:24:03;1.75;;;1.65;;
9940;SDS011;5009;50.656;7.188;2023-05-10T17:26:28;1.65;;;1.45;;
9940;SDS011;5009;50.656;7.188;2023-05-10T17:28:54;2.13;;;1.70;;
9940;SDS011;5009;50.656;7.188;2023-05-10T17:31:20;2.00;;;1.90;;
9940;SDS011;5009;50.656;7.188;2023-05-10T17:33:45;2.50;;;2.30;;
9940;SDS011;5009;50.656;7.188;2023-05-10T17:36:11;2.35;;;2.15;;
9940;SDS011;5009;50.656;7.188;2023-05-10T17:38:36;3.15;;;1.92;;
9940;SDS011;5009;50.656;7.188;2023-05-10T17:41:02;3.65;;;1.92;;
9940;SDS011;5009;50.656;7.188;2023-05-10T17:43:28;1.73;;;1.60;;
9940;SDS011;5009;50.656;7.188;2023-05-10T17:45:53;1.67;;;1.58;;
9940;SDS011;5009;50.656;7.188;2023-05-10T17:48:19;1.90;;;1.80;;
9940;SDS011;5009;50.656;7.188;2023-05-10T17:50:44;1.92;;;1.73;;
9940;SDS011;5009;50.656;7.188;2023-05-10T17:53:10;1.90;;;1.70;;
9940;SDS011;5009;50.656;7.188;2023-05-10T17:55:38;3.00;;;1.90;;
9940;SDS011;5009;50.656;7.188;2023-05-10T17:58:06;2.00;;;1.90;;
9940;SDS011;5009;50.656;7.188;2023-05-10T18:00:32;2.20;;;2.00;;
9940;SDS011;5009;50.656;7.188;2023-05-10T18:02:57;2.38;;;2.10;;
9940;SDS011;5009;50.656;7.188;2023-05-10T18:05:23;2.30;;;1.80;;
9940;SDS011;5009;50.656;7.188;2023-05-10T18:08:31;2.17;;;2.08;;
9940;SDS011;5009;50.656;7.188;2023-05-10T18:10:46;2.92;;;1.83;;
9940;SDS011;5009;50.656;7.188;2023-05-10T18:13:11;2.70;;;2.50;;
9940;SDS011;5009;50.656;7.188;2023-05-10T18:15:37;2.33;;;2.17;;
9940;SDS011;5009;50.656;7.188;2023-05-10T18:18:03;3.08;;;2.10;;
9940;SDS011;5009;50.656;7.188;2023-05-10T18:20:29;2.20;;;2.00;;
9940;SDS011;5009;50.656;7.188;2023-05-10T18:22:55;2.22;;;1.80;;
9940;SDS011;5009;50.656;7.188;2023-05-10T18:25:24;1.80;;;1.70;;
9940;SDS011;5009;50.656;7.188;2023-05-10T18:27:50;1.77;;;1.67;;
9940;SDS011;5009;50.656;7.188;2023-05-10T18:33:15;1.57;;;1.47;;
9940;SDS011;5009;50.656;7.188;2023-05-10T18:35:40;3.37;;;1.97;;
9940;SDS011;5009;50.656;7.188;2023-05-10T18:38:06;3.23;;;2.20;;
9940;SDS011;5009;50.656;7.188;2023-05-10T18:40:33;2.05;;;1.95;;
9940;SDS011;5009;50.656;7.188;2023-05-10T18:42:59;2.00;;;1.90;;
9940;SDS011;5009;50.656;7.188;2023-05-10T18:45:25;1.73;;;1.53;;
9940;SDS011;5009;50.656;7.188;2023-05-10T18:47:50;2.23;;;2.10;;
9940;SDS011;5009;50.656;7.188;2023-05-10T18:50:16;2.57;;;1.77;;
9940;SDS011;5009;50.656;7.188;2023-05-10T18:52:43;2.50;;;2.30;;
9940;SDS011;5009;50.656;7.188;2023-05-10T18:55:09;2.60;;;2.40;;
9940;SDS011;5009;50.656;7.188;2023-05-10T18:57:35;2.47;;;2.23;;
9940;SDS011;5009;50.656;7.188;2023-05-10T19:00:06;2.27;;;2.00;;
9940;SDS011;5009;50.656;7.188;2023-05-10T19:02:34;4.40;;;2.13;;
9940;SDS011;5009;50.656;7.188;2023-05-10T19:05:03;2.63;;;2.17;;
9940;SDS011;5009;50.656;7.188;2023-05-10T19:07:30;2.20;;;2.10;;